sensor_id;sensor_type;location;lat;lon;timestamp;temperature;humidity
26641;DHT22;14269;47.358;0.724;2022-10-16T00:00:50;18.0;79.0
26641;DHT22;14269;47.358;0.724;2022-10-16T00:03:23;18.0;78.0
26641;DHT22;14269;47.358;0.724;2022-10-16T00:05:59;18.0;79.0
26641;DHT22;14269;47.358;0.724;2022-10-16T00:08:36;18.0;80.0
26641;DHT22;14269;47.358;0.724;2022-10-16T00:11:09;18.0;80.0
26641;DHT22;14269;47.358;0.724;2022-10-16T00:13:51;18.0;80.0
26641;DHT22;14269;47.358;0.724;2022-10-16T00:16:31;18.0;81.0
26641;DHT22;14269;47.358;0.724;2022-10-16T00:19:03;18.0;81.0
26641;DHT22;14269;47.358;0.724;2022-10-16T00:21:34;18.0;81.0
26641;DHT22;14269;47.358;0.724;2022-10-16T00:24:08;18.0;81.0
26641;DHT22;14269;47.358;0.724;2022-10-16T00:26:49;18.0;81.0
26641;DHT22;14269;47.358;0.724;2022-10-16T00:29:29;18.0;81.0
26641;DHT22;14269;47.358;0.724;2022-10-16T00:32:01;18.0;81.0
26641;DHT22;14269;47.358;0.724;2022-10-16T00:34:32;18.0;81.0
26641;DHT22;14269;47.358;0.724;2022-10-16T00:37:04;18.0;82.0
26641;DHT22;14269;47.358;0.724;2022-10-16T00:39:36;17.0;82.0
26641;DHT22;14269;47.358;0.724;2022-10-16T00:42:11;17.0;82.0
26641;DHT22;14269;47.358;0.724;2022-10-16T00:44:52;17.0;82.0
26641;DHT22;14269;47.358;0.724;2022-10-16T00:47:34;17.0;82.0
26641;DHT22;14269;47.358;0.724;2022-10-16T00:50:18;17.0;82.0
26641;DHT22;14269;47.358;0.724;2022-10-16T00:52:55;17.0;82.0
26641;DHT22;14269;47.358;0.724;2022-10-16T00:55:28;17.0;82.0
26641;DHT22;14269;47.358;0.724;2022-10-16T00:58:08;17.0;83.0
26641;DHT22;14269;47.358;0.724;2022-10-16T01:00:40;17.0;82.0
26641;DHT22;14269;47.358;0.724;2022-10-16T01:03:29;17.0;82.0
26641;DHT22;14269;47.358;0.724;2022-10-16T01:06:21;17.0;82.0
26641;DHT22;14269;47.358;0.724;2022-10-16T01:09:07;17.0;82.0
26641;DHT22;14269;47.358;0.724;2022-10-16T01:11:55;18.0;82.0
26641;DHT22;14269;47.358;0.724;2022-10-16T01:14:44;18.0;82.0
26641;DHT22;14269;47.358;0.724;2022-10-16T01:17:24;18.0;82.0
26641;DHT22;14269;47.358;0.724;2022-10-16T01:20:10;18.0;82.0
26641;DHT22;14269;47.358;0.724;2022-10-16T01:22:54;18.0;82.0
26641;DHT22;14269;47.358;0.724;2022-10-16T01:25:49;18.0;81.0
26641;DHT22;14269;47.358;0.724;2022-10-16T01:28:32;18.0;81.0
26641;DHT22;14269;47.358;0.724;2022-10-16T01:31:11;18.0;81.0
26641;DHT22;14269;47.358;0.724;2022-10-16T01:33:57;18.0;81.0
26641;DHT22;14269;47.358;0.724;2022-10-16T01:36:38;18.0;80.0
26641;DHT22;14269;47.358;0.724;2022-10-16T01:39:18;18.0;80.0
26641;DHT22;14269;47.358;0.724;2022-10-16T01:42:01;18.0;80.0
26641;DHT22;14269;47.358;0.724;2022-10-16T01:44:39;18.0;80.0
26641;DHT22;14269;47.358;0.724;2022-10-16T01:47:23;18.0;79.0
26641;DHT22;14269;47.358;0.724;2022-10-16T01:50:05;18.0;79.0
26641;DHT22;14269;47.358;0.724;2022-10-16T01:52:46;18.0;79.0
26641;DHT22;14269;47.358;0.724;2022-10-16T01:55:29;18.0;79.0
26641;DHT22;14269;47.358;0.724;2022-10-16T01:58:09;18.0;79.0
26641;DHT22;14269;47.358;0.724;2022-10-16T02:00:49;18.0;79.0
26641;DHT22;14269;47.358;0.724;2022-10-16T02:03:20;18.0;79.0
26641;DHT22;14269;47.358;0.724;2022-10-16T02:05:54;18.0;79.0
26641;DHT22;14269;47.358;0.724;2022-10-16T02:08:34;18.0;79.0
26641;DHT22;14269;47.358;0.724;2022-10-16T02:11:06;18.0;79.0
26641;DHT22;14269;47.358;0.724;2022-10-16T02:13:39;18.0;79.0
26641;DHT22;14269;47.358;0.724;2022-10-16T02:16:19;18.0;79.0
26641;DHT22;14269;47.358;0.724;2022-10-16T02:18:50;18.0;79.0
26641;DHT22;14269;47.358;0.724;2022-10-16T02:21:25;18.0;80.0
26641;DHT22;14269;47.358;0.724;2022-10-16T02:24:09;18.0;79.0
26641;DHT22;14269;47.358;0.724;2022-10-16T02:26:49;18.0;79.0
26641;DHT22;14269;47.358;0.724;2022-10-16T02:29:27;18.0;79.0
26641;DHT22;14269;47.358;0.724;2022-10-16T02:32:02;18.0;79.0
26641;DHT22;14269;47.358;0.724;2022-10-16T02:34:41;18.0;79.0
26641;DHT22;14269;47.358;0.724;2022-10-16T02:37:13;18.0;79.0
26641;DHT22;14269;47.358;0.724;2022-10-16T02:39:44;18.0;79.0
26641;DHT22;14269;47.358;0.724;2022-10-16T02:42:18;18.0;78.0
26641;DHT22;14269;47.358;0.724;2022-10-16T02:44:57;18.0;79.0
26641;DHT22;14269;47.358;0.724;2022-10-16T02:47:29;18.0;79.0
26641;DHT22;14269;47.358;0.724;2022-10-16T02:50:01;18.0;80.0
26641;DHT22;14269;47.358;0.724;2022-10-16T02:52:32;18.0;80.0
26641;DHT22;14269;47.358;0.724;2022-10-16T02:55:05;18.0;79.0
26641;DHT22;14269;47.358;0.724;2022-10-16T02:57:37;18.0;79.0
26641;DHT22;14269;47.358;0.724;2022-10-16T03:00:09;18.0;79.0
26641;DHT22;14269;47.358;0.724;2022-10-16T03:02:49;18.0;79.0
26641;DHT22;14269;47.358;0.724;2022-10-16T03:05:21;18.0;79.0
26641;DHT22;14269;47.358;0.724;2022-10-16T03:07:52;18.0;79.0
26641;DHT22;14269;47.358;0.724;2022-10-16T03:10:24;18.0;79.0
26641;DHT22;14269;47.358;0.724;2022-10-16T03:12:56;18.0;79.0
26641;DHT22;14269;47.358;0.724;2022-10-16T03:15:28;18.0;78.0
26641;DHT22;14269;47.358;0.724;2022-10-16T03:18:09;18.0;79.0
26641;DHT22;14269;47.358;0.724;2022-10-16T03:20:42;18.0;79.0
26641;DHT22;14269;47.358;0.724;2022-10-16T03:23:22;18.0;80.0
26641;DHT22;14269;47.358;0.724;2022-10-16T03:25:54;18.0;80.0
26641;DHT22;14269;47.358;0.724;2022-10-16T03:28:26;18.0;79.0
26641;DHT22;14269;47.358;0.724;2022-10-16T03:30:57;18.0;79.0
26641;DHT22;14269;47.358;0.724;2022-10-16T03:33:29;18.0;79.0
26641;DHT22;14269;47.358;0.724;2022-10-16T03:36:01;18.0;79.0
26641;DHT22;14269;47.358;0.724;2022-10-16T03:38:32;18.0;80.0
26641;DHT22;14269;47.358;0.724;2022-10-16T03:41:04;18.0;80.0
26641;DHT22;14269;47.358;0.724;2022-10-16T03:43:36;18.0;80.0
26641;DHT22;14269;47.358;0.724;2022-10-16T03:46:07;18.0;80.0
26641;DHT22;14269;47.358;0.724;2022-10-16T03:48:39;18.0;80.0
26641;DHT22;14269;47.358;0.724;2022-10-16T03:51:10;18.0;80.0
26641;DHT22;14269;47.358;0.724;2022-10-16T03:53:42;18.0;80.0
26641;DHT22;14269;47.358;0.724;2022-10-16T03:56:14;18.0;80.0
26641;DHT22;14269;47.358;0.724;2022-10-16T03:58:45;18.0;80.0
26641;DHT22;14269;47.358;0.724;2022-10-16T04:01:17;18.0;79.0
26641;DHT22;14269;47.358;0.724;2022-10-16T04:03:49;18.0;80.0
26641;DHT22;14269;47.358;0.724;2022-10-16T04:06:20;18.0;80.0
26641;DHT22;14269;47.358;0.724;2022-10-16T04:08:52;18.0;79.0
26641;DHT22;14269;47.358;0.724;2022-10-16T04:11:24;18.0;79.0
26641;DHT22;14269;47.358;0.724;2022-10-16T04:13:55;18.0;79.0
26641;DHT22;14269;47.358;0.724;2022-10-16T04:16:27;18.0;79.0
26641;DHT22;14269;47.358;0.724;2022-10-16T04:18:59;18.0;79.0
26641;DHT22;14269;47.358;0.724;2022-10-16T04:21:30;18.0;79.0
26641;DHT22;14269;47.358;0.724;2022-10-16T04:24:02;18.0;79.0
26641;DHT22;14269;47.358;0.724;2022-10-16T04:26:34;18.0;79.0
26641;DHT22;14269;47.358;0.724;2022-10-16T04:29:07;18.0;80.0
26641;DHT22;14269;47.358;0.724;2022-10-16T04:31:47;18.0;80.0
26641;DHT22;14269;47.358;0.724;2022-10-16T04:34:19;18.0;80.0
26641;DHT22;14269;47.358;0.724;2022-10-16T04:36:50;18.0;80.0
26641;DHT22;14269;47.358;0.724;2022-10-16T04:39:22;18.0;80.0
26641;DHT22;14269;47.358;0.724;2022-10-16T04:41:53;18.0;80.0
26641;DHT22;14269;47.358;0.724;2022-10-16T04:44:25;18.0;80.0
26641;DHT22;14269;47.358;0.724;2022-10-16T04:46:57;18.0;80.0
26641;DHT22;14269;47.358;0.724;2022-10-16T04:49:28;18.0;80.0
26641;DHT22;14269;47.358;0.724;2022-10-16T04:52:00;18.0;80.0
26641;DHT22;14269;47.358;0.724;2022-10-16T04:54:32;18.0;80.0
26641;DHT22;14269;47.358;0.724;2022-10-16T04:57:04;18.0;80.0
26641;DHT22;14269;47.358;0.724;2022-10-16T04:59:35;18.0;80.0
26641;DHT22;14269;47.358;0.724;2022-10-16T05:02:07;18.0;81.0
26641;DHT22;14269;47.358;0.724;2022-10-16T05:04:38;18.0;81.0
26641;DHT22;14269;47.358;0.724;2022-10-16T05:07:10;18.0;81.0
26641;DHT22;14269;47.358;0.724;2022-10-16T05:09:42;18.0;81.0
26641;DHT22;14269;47.358;0.724;2022-10-16T05:12:13;18.0;81.0
26641;DHT22;14269;47.358;0.724;2022-10-16T05:14:45;18.0;81.0
26641;DHT22;14269;47.358;0.724;2022-10-16T05:17:17;18.0;81.0
26641;DHT22;14269;47.358;0.724;2022-10-16T05:19:48;18.0;81.0
26641;DHT22;14269;47.358;0.724;2022-10-16T05:22:20;18.0;81.0
26641;DHT22;14269;47.358;0.724;2022-10-16T05:24:51;18.0;81.0
26641;DHT22;14269;47.358;0.724;2022-10-16T05:27:23;18.0;81.0
26641;DHT22;14269;47.358;0.724;2022-10-16T05:29:55;18.0;81.0
26641;DHT22;14269;47.358;0.724;2022-10-16T05:32:26;18.0;81.0
26641;DHT22;14269;47.358;0.724;2022-10-16T05:34:59;18.0;81.0
26641;DHT22;14269;47.358;0.724;2022-10-16T05:37:40;18.0;81.0
26641;DHT22;14269;47.358;0.724;2022-10-16T05:40:13;18.0;81.0
26641;DHT22;14269;47.358;0.724;2022-10-16T05:42:55;18.0;81.0
26641;DHT22;14269;47.358;0.724;2022-10-16T05:45:35;18.0;80.0
26641;DHT22;14269;47.358;0.724;2022-10-16T05:48:07;18.0;80.0
26641;DHT22;14269;47.358;0.724;2022-10-16T05:50:38;18.0;81.0
26641;DHT22;14269;47.358;0.724;2022-10-16T05:53:10;18.0;81.0
26641;DHT22;14269;47.358;0.724;2022-10-16T05:55:42;18.0;81.0
26641;DHT22;14269;47.358;0.724;2022-10-16T05:58:13;18.0;81.0
26641;DHT22;14269;47.358;0.724;2022-10-16T06:00:52;18.0;81.0
26641;DHT22;14269;47.358;0.724;2022-10-16T06:03:27;18.0;81.0
26641;DHT22;14269;47.358;0.724;2022-10-16T06:05:59;18.0;82.0
26641;DHT22;14269;47.358;0.724;2022-10-16T06:08:31;18.0;82.0
26641;DHT22;14269;47.358;0.724;2022-10-16T06:11:13;18.0;82.0
26641;DHT22;14269;47.358;0.724;2022-10-16T06:13:55;18.0;82.0
26641;DHT22;14269;47.358;0.724;2022-10-16T06:16:36;18.0;81.0
26641;DHT22;14269;47.358;0.724;2022-10-16T06:19:18;18.0;81.0
26641;DHT22;14269;47.358;0.724;2022-10-16T06:21:59;18.0;81.0
26641;DHT22;14269;47.358;0.724;2022-10-16T06:24:30;18.0;80.0
26641;DHT22;14269;47.358;0.724;2022-10-16T06:27:03;18.0;80.0
26641;DHT22;14269;47.358;0.724;2022-10-16T06:29:34;18.0;81.0
26641;DHT22;14269;47.358;0.724;2022-10-16T06:32:05;18.0;81.0
26641;DHT22;14269;47.358;0.724;2022-10-16T06:34:37;18.0;81.0
26641;DHT22;14269;47.358;0.724;2022-10-16T06:37:19;18.0;81.0
26641;DHT22;14269;47.358;0.724;2022-10-16T06:39:52;18.0;81.0
26641;DHT22;14269;47.358;0.724;2022-10-16T06:42:32;18.0;81.0
26641;DHT22;14269;47.358;0.724;2022-10-16T06:45:04;18.0;82.0
26641;DHT22;14269;47.358;0.724;2022-10-16T06:47:36;18.0;82.0
26641;DHT22;14269;47.358;0.724;2022-10-16T06:50:07;18.0;82.0
26641;DHT22;14269;47.358;0.724;2022-10-16T06:52:39;18.0;82.0
26641;DHT22;14269;47.358;0.724;2022-10-16T06:55:10;18.0;83.0
26641;DHT22;14269;47.358;0.724;2022-10-16T06:57:42;18.0;83.0
26641;DHT22;14269;47.358;0.724;2022-10-16T07:00:14;18.0;83.0
26641;DHT22;14269;47.358;0.724;2022-10-16T07:02:45;18.0;83.0
26641;DHT22;14269;47.358;0.724;2022-10-16T07:05:17;18.0;82.0
26641;DHT22;14269;47.358;0.724;2022-10-16T07:07:48;18.0;82.0
26641;DHT22;14269;47.358;0.724;2022-10-16T07:10:24;18.0;82.0
26641;DHT22;14269;47.358;0.724;2022-10-16T07:13:02;18.0;81.0
26641;DHT22;14269;47.358;0.724;2022-10-16T07:15:34;18.0;81.0
26641;DHT22;14269;47.358;0.724;2022-10-16T07:18:05;18.0;81.0
26641;DHT22;14269;47.358;0.724;2022-10-16T07:20:37;18.0;81.0
26641;DHT22;14269;47.358;0.724;2022-10-16T07:23:09;18.0;81.0
26641;DHT22;14269;47.358;0.724;2022-10-16T07:25:40;18.0;81.0
26641;DHT22;14269;47.358;0.724;2022-10-16T07:28:12;18.0;81.0
26641;DHT22;14269;47.358;0.724;2022-10-16T07:30:43;19.0;81.0
26641;DHT22;14269;47.358;0.724;2022-10-16T07:33:15;19.0;80.0
26641;DHT22;14269;47.358;0.724;2022-10-16T07:35:49;19.0;80.0
26641;DHT22;14269;47.358;0.724;2022-10-16T07:38:28;19.0;79.0
26641;DHT22;14269;47.358;0.724;2022-10-16T07:41:02;19.0;79.0
26641;DHT22;14269;47.358;0.724;2022-10-16T07:43:45;19.0;79.0
26641;DHT22;14269;47.358;0.724;2022-10-16T07:46:24;19.0;79.0
26641;DHT22;14269;47.358;0.724;2022-10-16T07:48:56;19.0;79.0
26641;DHT22;14269;47.358;0.724;2022-10-16T07:51:27;19.0;79.0
26641;DHT22;14269;47.358;0.724;2022-10-16T07:53:59;19.0;79.0
26641;DHT22;14269;47.358;0.724;2022-10-16T07:56:31;19.0;78.0
26641;DHT22;14269;47.358;0.724;2022-10-16T07:59:02;19.0;78.0
26641;DHT22;14269;47.358;0.724;2022-10-16T08:01:34;19.0;78.0
26641;DHT22;14269;47.358;0.724;2022-10-16T08:04:05;19.0;78.0
26641;DHT22;14269;47.358;0.724;2022-10-16T08:06:38;19.0;78.0
26641;DHT22;14269;47.358;0.724;2022-10-16T08:09:19;19.0;77.0
26641;DHT22;14269;47.358;0.724;2022-10-16T08:11:52;19.0;77.0
26641;DHT22;14269;47.358;0.724;2022-10-16T08:14:32;19.0;77.0
26641;DHT22;14269;47.358;0.724;2022-10-16T08:17:04;19.0;77.0
26641;DHT22;14269;47.358;0.724;2022-10-16T08:19:35;19.0;77.0
26641;DHT22;14269;47.358;0.724;2022-10-16T08:22:07;19.0;77.0
26641;DHT22;14269;47.358;0.724;2022-10-16T08:24:39;20.0;77.0
26641;DHT22;14269;47.358;0.724;2022-10-16T08:27:10;19.0;77.0
26641;DHT22;14269;47.358;0.724;2022-10-16T08:29:42;19.0;77.0
26641;DHT22;14269;47.358;0.724;2022-10-16T08:32:13;20.0;77.0
26641;DHT22;14269;47.358;0.724;2022-10-16T08:34:45;20.0;76.0
26641;DHT22;14269;47.358;0.724;2022-10-16T08:37:17;20.0;74.0
26641;DHT22;14269;47.358;0.724;2022-10-16T08:39:48;21.0;73.0
26641;DHT22;14269;47.358;0.724;2022-10-16T08:42:31;21.0;72.0
26641;DHT22;14269;47.358;0.724;2022-10-16T08:45:21;22.0;70.0
26641;DHT22;14269;47.358;0.724;2022-10-16T08:48:15;21.0;70.0
26641;DHT22;14269;47.358;0.724;2022-10-16T08:50:56;21.0;71.0
26641;DHT22;14269;47.358;0.724;2022-10-16T08:53:30;21.0;71.0
26641;DHT22;14269;47.358;0.724;2022-10-16T08:56:09;21.0;72.0
26641;DHT22;14269;47.358;0.724;2022-10-16T08:58:48;21.0;72.0
26641;DHT22;14269;47.358;0.724;2022-10-16T09:01:25;21.0;72.0
26641;DHT22;14269;47.358;0.724;2022-10-16T09:04:25;21.0;73.0
26641;DHT22;14269;47.358;0.724;2022-10-16T09:07:10;21.0;73.0
26641;DHT22;14269;47.358;0.724;2022-10-16T09:09:57;21.0;73.0
26641;DHT22;14269;47.358;0.724;2022-10-16T09:12:44;21.0;72.0
26641;DHT22;14269;47.358;0.724;2022-10-16T09:15:30;21.0;72.0
26641;DHT22;14269;47.358;0.724;2022-10-16T09:18:11;21.0;72.0
26641;DHT22;14269;47.358;0.724;2022-10-16T09:20:51;21.0;73.0
26641;DHT22;14269;47.358;0.724;2022-10-16T09:23:28;21.0;73.0
26641;DHT22;14269;47.358;0.724;2022-10-16T09:26:12;21.0;72.0
26641;DHT22;14269;47.358;0.724;2022-10-16T09:28:51;22.0;70.0
26641;DHT22;14269;47.358;0.724;2022-10-16T09:31:36;22.0;69.0
26641;DHT22;14269;47.358;0.724;2022-10-16T09:34:21;22.0;69.0
26641;DHT22;14269;47.358;0.724;2022-10-16T09:36:57;21.0;72.0
26641;DHT22;14269;47.358;0.724;2022-10-16T09:39:44;22.0;70.0
26641;DHT22;14269;47.358;0.724;2022-10-16T09:42:21;22.0;70.0
26641;DHT22;14269;47.358;0.724;2022-10-16T09:45:01;22.0;68.0
26641;DHT22;14269;47.358;0.724;2022-10-16T09:47:39;22.0;69.0
26641;DHT22;14269;47.358;0.724;2022-10-16T09:50:22;22.0;69.0
26641;DHT22;14269;47.358;0.724;2022-10-16T09:53:05;22.0;69.0
26641;DHT22;14269;47.358;0.724;2022-10-16T09:55:47;22.0;68.0
26641;DHT22;14269;47.358;0.724;2022-10-16T09:58:21;26.0;59.0
26641;DHT22;14269;47.358;0.724;2022-10-16T10:01:01;25.0;59.0
26641;DHT22;14269;47.358;0.724;2022-10-16T10:03:36;25.0;59.0
26641;DHT22;14269;47.358;0.724;2022-10-16T10:06:21;27.0;54.0
26641;DHT22;14269;47.358;0.724;2022-10-16T10:09:02;27.0;53.0
26641;DHT22;14269;47.358;0.724;2022-10-16T10:11:41;26.0;56.0
26641;DHT22;14269;47.358;0.724;2022-10-16T10:14:23;25.0;59.0
26641;DHT22;14269;47.358;0.724;2022-10-16T10:17:10;25.0;60.0
26641;DHT22;14269;47.358;0.724;2022-10-16T10:19:48;24.0;62.0
26641;DHT22;14269;47.358;0.724;2022-10-16T10:22:31;24.0;61.0
26641;DHT22;14269;47.358;0.724;2022-10-16T10:25:28;24.0;63.0
26641;DHT22;14269;47.358;0.724;2022-10-16T10:28:09;24.0;63.0
26641;DHT22;14269;47.358;0.724;2022-10-16T10:30:56;24.0;64.0
26641;DHT22;14269;47.358;0.724;2022-10-16T10:33:40;24.0;64.0
26641;DHT22;14269;47.358;0.724;2022-10-16T10:36:22;24.0;63.0
26641;DHT22;14269;47.358;0.724;2022-10-16T10:38:58;24.0;64.0
26641;DHT22;14269;47.358;0.724;2022-10-16T10:42:17;24.0;64.0
26641;DHT22;14269;47.358;0.724;2022-10-16T10:45:16;22.0;67.0
26641;DHT22;14269;47.358;0.724;2022-10-16T10:48:03;22.0;67.0
26641;DHT22;14269;47.358;0.724;2022-10-16T10:50:49;23.0;66.0
26641;DHT22;14269;47.358;0.724;2022-10-16T10:53:36;23.0;66.0
26641;DHT22;14269;47.358;0.724;2022-10-16T10:56:44;23.0;65.0
26641;DHT22;14269;47.358;0.724;2022-10-16T10:59:36;23.0;67.0
26641;DHT22;14269;47.358;0.724;2022-10-16T11:02:18;23.0;65.0
26641;DHT22;14269;47.358;0.724;2022-10-16T11:06:00;24.0;64.0
26641;DHT22;14269;47.358;0.724;2022-10-16T11:08:39;24.0;63.0
26641;DHT22;14269;47.358;0.724;2022-10-16T11:11:22;24.0;64.0
26641;DHT22;14269;47.358;0.724;2022-10-16T11:14:04;24.0;64.0
26641;DHT22;14269;47.358;0.724;2022-10-16T11:16:45;24.0;62.0
26641;DHT22;14269;47.358;0.724;2022-10-16T11:19:31;24.0;62.0
26641;DHT22;14269;47.358;0.724;2022-10-16T11:22:18;24.0;62.0
26641;DHT22;14269;47.358;0.724;2022-10-16T11:25:00;24.0;62.0
26641;DHT22;14269;47.358;0.724;2022-10-16T11:27:40;23.0;63.0
26641;DHT22;14269;47.358;0.724;2022-10-16T11:30:21;23.0;63.0
26641;DHT22;14269;47.358;0.724;2022-10-16T11:33:13;23.0;63.0
26641;DHT22;14269;47.358;0.724;2022-10-16T11:35:57;24.0;61.0
26641;DHT22;14269;47.358;0.724;2022-10-16T11:38:41;25.0;60.0
26641;DHT22;14269;47.358;0.724;2022-10-16T11:41:22;25.0;59.0
26641;DHT22;14269;47.358;0.724;2022-10-16T11:44:09;26.0;58.0
26641;DHT22;14269;47.358;0.724;2022-10-16T11:46:59;26.0;55.0
26641;DHT22;14269;47.358;0.724;2022-10-16T11:49:33;24.0;61.0
26641;DHT22;14269;47.358;0.724;2022-10-16T11:52:20;24.0;61.0
26641;DHT22;14269;47.358;0.724;2022-10-16T11:54:59;24.0;61.0
26641;DHT22;14269;47.358;0.724;2022-10-16T11:57:42;25.0;61.0
26641;DHT22;14269;47.358;0.724;2022-10-16T12:00:22;24.0;61.0
26641;DHT22;14269;47.358;0.724;2022-10-16T12:03:08;23.0;62.0
26641;DHT22;14269;47.358;0.724;2022-10-16T12:05:55;23.0;63.0
26641;DHT22;14269;47.358;0.724;2022-10-16T12:08:35;23.0;63.0
26641;DHT22;14269;47.358;0.724;2022-10-16T12:11:09;23.0;63.0
26641;DHT22;14269;47.358;0.724;2022-10-16T12:13:48;24.0;61.0
26641;DHT22;14269;47.358;0.724;2022-10-16T12:16:22;25.0;59.0
26641;DHT22;14269;47.358;0.724;2022-10-16T12:19:10;24.0;60.0
26641;DHT22;14269;47.358;0.724;2022-10-16T12:21:44;23.0;61.0
26641;DHT22;14269;47.358;0.724;2022-10-16T12:24:32;24.0;60.0
26641;DHT22;14269;47.358;0.724;2022-10-16T12:27:21;24.0;60.0
26641;DHT22;14269;47.358;0.724;2022-10-16T12:30:00;25.0;58.0
26641;DHT22;14269;47.358;0.724;2022-10-16T12:32:40;25.0;58.0
26641;DHT22;14269;47.358;0.724;2022-10-16T12:35:19;25.0;59.0
26641;DHT22;14269;47.358;0.724;2022-10-16T12:37:54;24.0;60.0
26641;DHT22;14269;47.358;0.724;2022-10-16T12:40:37;23.0;61.0
26641;DHT22;14269;47.358;0.724;2022-10-16T12:43:27;23.0;63.0
26641;DHT22;14269;47.358;0.724;2022-10-16T12:46:01;23.0;62.0
26641;DHT22;14269;47.358;0.724;2022-10-16T12:48:42;24.0;61.0
26641;DHT22;14269;47.358;0.724;2022-10-16T12:51:25;24.0;60.0
26641;DHT22;14269;47.358;0.724;2022-10-16T12:54:12;24.0;60.0
26641;DHT22;14269;47.358;0.724;2022-10-16T12:56:55;24.0;59.0
26641;DHT22;14269;47.358;0.724;2022-10-16T12:59:35;25.0;58.0
26641;DHT22;14269;47.358;0.724;2022-10-16T13:02:22;24.0;59.0
26641;DHT22;14269;47.358;0.724;2022-10-16T13:05:12;24.0;61.0
26641;DHT22;14269;47.358;0.724;2022-10-16T13:08:01;24.0;62.0
26641;DHT22;14269;47.358;0.724;2022-10-16T13:10:41;25.0;59.0
26641;DHT22;14269;47.358;0.724;2022-10-16T13:13:34;25.0;57.0
26641;DHT22;14269;47.358;0.724;2022-10-16T13:16:16;25.0;56.0
26641;DHT22;14269;47.358;0.724;2022-10-16T13:19:00;26.0;56.0
26641;DHT22;14269;47.358;0.724;2022-10-16T13:21:46;26.0;55.0
26641;DHT22;14269;47.358;0.724;2022-10-16T13:24:38;26.0;56.0
26641;DHT22;14269;47.358;0.724;2022-10-16T13:27:26;25.0;57.0
26641;DHT22;14269;47.358;0.724;2022-10-16T13:30:14;25.0;58.0
26641;DHT22;14269;47.358;0.724;2022-10-16T13:32:55;26.0;57.0
26641;DHT22;14269;47.358;0.724;2022-10-16T13:35:33;26.0;57.0
26641;DHT22;14269;47.358;0.724;2022-10-16T13:38:15;26.0;56.0
26641;DHT22;14269;47.358;0.724;2022-10-16T13:40:56;26.0;56.0
26641;DHT22;14269;47.358;0.724;2022-10-16T13:43:39;26.0;57.0
26641;DHT22;14269;47.358;0.724;2022-10-16T13:46:19;26.0;56.0
26641;DHT22;14269;47.358;0.724;2022-10-16T13:49:01;26.0;56.0
26641;DHT22;14269;47.358;0.724;2022-10-16T13:51:54;26.0;56.0
26641;DHT22;14269;47.358;0.724;2022-10-16T13:54:33;25.0;57.0
26641;DHT22;14269;47.358;0.724;2022-10-16T13:57:06;25.0;57.0
26641;DHT22;14269;47.358;0.724;2022-10-16T13:59:47;26.0;57.0
26641;DHT22;14269;47.358;0.724;2022-10-16T14:02:22;25.0;57.0
26641;DHT22;14269;47.358;0.724;2022-10-16T14:05:02;26.0;56.0
26641;DHT22;14269;47.358;0.724;2022-10-16T14:07:42;26.0;55.0
26641;DHT22;14269;47.358;0.724;2022-10-16T14:10:21;26.0;55.0
26641;DHT22;14269;47.358;0.724;2022-10-16T14:12:57;26.0;56.0
26641;DHT22;14269;47.358;0.724;2022-10-16T14:15:37;25.0;57.0
26641;DHT22;14269;47.358;0.724;2022-10-16T14:18:17;26.0;56.0
26641;DHT22;14269;47.358;0.724;2022-10-16T14:20:51;26.0;55.0
26641;DHT22;14269;47.358;0.724;2022-10-16T14:23:28;26.0;53.0
26641;DHT22;14269;47.358;0.724;2022-10-16T14:26:12;26.0;54.0
26641;DHT22;14269;47.358;0.724;2022-10-16T14:28:47;26.0;55.0
26641;DHT22;14269;47.358;0.724;2022-10-16T14:31:30;26.0;56.0
26641;DHT22;14269;47.358;0.724;2022-10-16T14:34:28;26.0;56.0
26641;DHT22;14269;47.358;0.724;2022-10-16T14:37:08;26.0;56.0
26641;DHT22;14269;47.358;0.724;2022-10-16T14:39:48;26.0;56.0
26641;DHT22;14269;47.358;0.724;2022-10-16T14:42:25;26.0;54.0
26641;DHT22;14269;47.358;0.724;2022-10-16T14:44:57;25.0;56.0
26641;DHT22;14269;47.358;0.724;2022-10-16T14:47:47;25.0;57.0
26641;DHT22;14269;47.358;0.724;2022-10-16T14:50:20;26.0;57.0
26641;DHT22;14269;47.358;0.724;2022-10-16T14:52:51;26.0;56.0
26641;DHT22;14269;47.358;0.724;2022-10-16T14:55:24;25.0;57.0
26641;DHT22;14269;47.358;0.724;2022-10-16T14:57:55;25.0;58.0
26641;DHT22;14269;47.358;0.724;2022-10-16T15:00:26;25.0;58.0
26641;DHT22;14269;47.358;0.724;2022-10-16T15:02:58;25.0;59.0
26641;DHT22;14269;47.358;0.724;2022-10-16T15:05:32;25.0;59.0
26641;DHT22;14269;47.358;0.724;2022-10-16T15:08:13;24.0;60.0
26641;DHT22;14269;47.358;0.724;2022-10-16T15:10:53;24.0;60.0
26641;DHT22;14269;47.358;0.724;2022-10-16T15:13:25;25.0;60.0
26641;DHT22;14269;47.358;0.724;2022-10-16T15:15:58;25.0;60.0
26641;DHT22;14269;47.358;0.724;2022-10-16T15:18:38;25.0;60.0
26641;DHT22;14269;47.358;0.724;2022-10-16T15:21:21;25.0;60.0
26641;DHT22;14269;47.358;0.724;2022-10-16T15:24:02;25.0;58.0
26641;DHT22;14269;47.358;0.724;2022-10-16T15:26:33;25.0;59.0
26641;DHT22;14269;47.358;0.724;2022-10-16T15:29:05;25.0;58.0
26641;DHT22;14269;47.358;0.724;2022-10-16T15:31:37;26.0;58.0
26641;DHT22;14269;47.358;0.724;2022-10-16T15:34:09;26.0;57.0
26641;DHT22;14269;47.358;0.724;2022-10-16T15:36:40;26.0;56.0
26641;DHT22;14269;47.358;0.724;2022-10-16T15:39:13;26.0;55.0
26641;DHT22;14269;47.358;0.724;2022-10-16T15:41:53;26.0;55.0
26641;DHT22;14269;47.358;0.724;2022-10-16T15:44:29;25.0;55.0
26641;DHT22;14269;47.358;0.724;2022-10-16T15:47:07;25.0;57.0
26641;DHT22;14269;47.358;0.724;2022-10-16T15:49:39;25.0;57.0
26641;DHT22;14269;47.358;0.724;2022-10-16T15:52:10;24.0;58.0
26641;DHT22;14269;47.358;0.724;2022-10-16T15:54:42;24.0;59.0
26641;DHT22;14269;47.358;0.724;2022-10-16T15:57:13;24.0;59.0
26641;DHT22;14269;47.358;0.724;2022-10-16T15:59:45;24.0;59.0
26641;DHT22;14269;47.358;0.724;2022-10-16T16:02:17;24.0;60.0
26641;DHT22;14269;47.358;0.724;2022-10-16T16:04:48;24.0;60.0
26641;DHT22;14269;47.358;0.724;2022-10-16T16:07:20;24.0;60.0
26641;DHT22;14269;47.358;0.724;2022-10-16T16:09:52;24.0;60.0
26641;DHT22;14269;47.358;0.724;2022-10-16T16:12:23;24.0;60.0
26641;DHT22;14269;47.358;0.724;2022-10-16T16:14:55;24.0;61.0
26641;DHT22;14269;47.358;0.724;2022-10-16T16:17:27;24.0;61.0
26641;DHT22;14269;47.358;0.724;2022-10-16T16:19:58;24.0;62.0
26641;DHT22;14269;47.358;0.724;2022-10-16T16:22:30;24.0;62.0
26641;DHT22;14269;47.358;0.724;2022-10-16T16:25:02;24.0;62.0
26641;DHT22;14269;47.358;0.724;2022-10-16T16:27:34;24.0;63.0
26641;DHT22;14269;47.358;0.724;2022-10-16T16:30:07;24.0;63.0
26641;DHT22;14269;47.358;0.724;2022-10-16T16:32:47;24.0;63.0
26641;DHT22;14269;47.358;0.724;2022-10-16T16:35:18;24.0;63.0
26641;DHT22;14269;47.358;0.724;2022-10-16T16:37:50;23.0;64.0
26641;DHT22;14269;47.358;0.724;2022-10-16T16:40:21;23.0;64.0
26641;DHT22;14269;47.358;0.724;2022-10-16T16:42:53;23.0;64.0
26641;DHT22;14269;47.358;0.724;2022-10-16T16:45:25;23.0;64.0
26641;DHT22;14269;47.358;0.724;2022-10-16T16:47:56;23.0;65.0
26641;DHT22;14269;47.358;0.724;2022-10-16T16:50:28;23.0;65.0
26641;DHT22;14269;47.358;0.724;2022-10-16T16:53:00;23.0;65.0
26641;DHT22;14269;47.358;0.724;2022-10-16T16:55:32;23.0;66.0
26641;DHT22;14269;47.358;0.724;2022-10-16T16:58:13;23.0;66.0
26641;DHT22;14269;47.358;0.724;2022-10-16T17:00:45;23.0;66.0
26641;DHT22;14269;47.358;0.724;2022-10-16T17:03:17;23.0;67.0
26641;DHT22;14269;47.358;0.724;2022-10-16T17:05:55;23.0;67.0
26641;DHT22;14269;47.358;0.724;2022-10-16T17:08:30;23.0;67.0